Arrowtown, New Zealand
Current Conditions -  °F | °C
As of 6:00 AM on Tuesday 21 Oct 2014 (Local Time) from NZCH Reporting Station
Clear Clear  
Wind Chill: 32°   Ceiling: Unl
Heat Index: 32°   Visibility: 6mi
Dew Point: 32°   Wind: 1mph
Humidity: 100%   Direction: 310°NW
Pressure: 30.09"   Gusts: NA
Location:  44.94°S, 168.83°E
Report Text: NZCH 201800Z AUTO 31001KT 9999 NCD 00/00 Q1019 NOSIG
Loading
Personal Weather Stations






























Interactive Weather Map
Tropical Storm Tracking
New forecast layout! Learn more

10-Day Weather Forecast

Advertisements
Track Severe Weather on mobile